Airfield :
LOGIN :

Register | Disclaimer

   EN    FR    IT 

 










Legend :    VFR   Marginal VFR   IFR   Intensive IFR   Very Intensive IFR
Visi :
Ceiling :
>= 8 km
>= 3000ft
5 to 8 km
1000 to 3000 ft
1500m to 5 km
500 to 1000 ft
800 to 1500m
200 to 500 ft
< 800m
< 200 ft
Symbols :   Thunderstorms  Fog  Heavy snow  Heavy precipitations  Wind > 20 kt
SIGMETs :     Misc.  Thunderstorms  Icing  Turbulence  Mountain Waves  Volcanic Ashes







- Airport Elevation : 913 ft
- Download approach charts


LFSX - Luxeuil

CURRENT METAR :
  • 220600Z AUTO 24011KT 9999 -RADZ BKN011 OVC017 10/09 Q1012

EXPIRED METARs :
  • 220530Z AUTO 25009KT 220V280 7000 -DZ BKN007 OVC013 09/09 Q1012
  • 220500Z AUTO 25007KT 210V280 5000 -DZ BR OVC006 09/09 Q1012
  • 220430Z AUTO 26007KT 220V280 9999 BKN008 OVC013 09/09 Q1012
  • 220400Z AUTO 25008KT 220V280 9000 -DZ BKN009 OVC014 09/09 Q1012
  • 220330Z AUTO 25008KT 7000 -DZ BKN008 OVC014 09/09 Q1012

TAF AMD TAF LFSX
Valid from the 22 at 05:00 until the 23 at 03:00 UTC


220550Z 2205/2303 25010G20KT 6000 RADZ SCT010 OVC015
TEMPO 2205/2212 2000 RA BKN005 OVC010
TEMPO 2212/2217 26020G30KT 3000 SHRA SCT010TCU OVC020
BECMG 2217/2219 30005KT 9999 NSW BKN020
BECMG 2220/2222 2000 BR BKN010
TEMPO 2223/2303 0200 FG OVC005
No reported NOTAMs for that airfield.



MET'MAP, your aeronautical weather chart ! - Copyright ORBIFLY December 2007 - Disclaimer

ORBIFLY MET'MAP TEAM :

Programming & Development : Alexandra Zaïnal
Concept & Development : Baudouin d'Aumeries
Co-Development & Prog : Marc-Olivier Méhu
Technical & hardware support : Manuel Goepfert

Contact : metmap@orbifly.com




SOURCES & CREDITS :

   NOAA